Time;durP1;ratioP1;P1;durP2;ratioP2;P2;SDS_P1;SDS_P2;PMS_P1;PMS_P2;Temp;Humidity;BMP_temperature;BMP_pressure;BME280_temperature;BME280_humidity;BME280_pressure;Samples;Min_cycle;Max_cycle;Signal;HPM_P1;HPM_P2
2021/03/29 00:00:45;;;;;;;29.80;9.07;;;;;;;5.59;69.26;96472.66;5101643;28;20082;-69
2021/03/29 00:03:12;;;;;;;11.07;6.80;;;;;;;5.63;68.80;96468.78;5102238;28;20147;-69
2021/03/29 00:05:39;;;;;;;11.40;6.82;;;;;;;5.61;68.13;96462.97;5101675;28;20051;-69
2021/03/29 00:08:23;;;;;;;10.98;7.30;;;;;;;5.67;68.22;96477.81;5102023;28;20056;-68
2021/03/29 00:10:52;;;;;;;12.27;7.47;;;;;;;5.66;68.44;96463.28;5100748;28;20164;-69
2021/03/29 00:13:20;;;;;;;11.57;6.75;;;;;;;5.59;67.89;96467.47;5100438;28;20059;-68
2021/03/29 00:15:52;;;;;;;11.68;6.45;;;;;;;5.67;67.66;96470.06;5101128;28;20047;-69
2021/03/29 00:18:19;;;;;;;11.60;7.00;;;;;;;5.64;67.71;96470.41;5102071;28;20105;-69
2021/03/29 00:20:54;;;;;;;10.60;7.40;;;;;;;5.68;67.48;96466.53;5101678;28;20036;-69
2021/03/29 00:23:22;;;;;;;10.93;6.70;;;;;;;5.59;68.37;96467.47;5100077;28;20047;-69
2021/03/29 00:25:50;;;;;;;9.85;6.53;;;;;;;5.47;68.38;96475.50;5100842;28;20097;-69
2021/03/29 00:28:16;;;;;;;9.93;6.85;;;;;;;5.36;68.59;96463.69;5099510;27;20059;-68
2021/03/29 00:30:46;;;;;;;10.77;7.18;;;;;;;5.39;68.83;96457.44;5103603;28;20043;-69
2021/03/29 00:33:15;;;;;;;11.80;7.82;;;;;;;5.35;69.19;96471.63;5100907;27;20481;-69
2021/03/29 00:35:44;;;;;;;14.75;8.52;;;;;;;5.28;69.28;96465.47;5101834;28;20040;-68
2021/03/29 00:38:13;;;;;;;14.80;7.60;;;;;;;5.27;69.00;96463.84;5095219;28;20560;-69
2021/03/29 00:40:42;;;;;;;9.55;7.00;;;;;;;5.30;69.24;96468.72;5086995;28;20047;-69
2021/03/29 00:43:26;;;;;;;11.98;7.85;;;;;;;5.28;69.42;96470.66;5087424;28;20131;-69
2021/03/29 00:45:55;;;;;;;15.95;9.55;;;;;;;4.63;73.03;96472.00;5086738;28;20036;-69
2021/03/29 00:48:24;;;;;;;22.77;12.63;;;;;;;4.27;75.44;96477.25;5087123;28;20062;-69
2021/03/29 00:50:53;;;;;;;22.52;14.05;;;;;;;4.16;76.73;96469.72;5086389;28;20047;-69
2021/03/29 00:53:23;;;;;;;23.50;14.48;;;;;;;4.19;76.28;96469.44;5069795;28;20040;-68
2021/03/29 00:55:51;;;;;;;21.65;12.50;;;;;;;4.34;75.22;96486.00;5085760;28;20036;-68
2021/03/29 00:58:21;;;;;;;19.70;11.35;;;;;;;4.35;75.29;96474.72;5088245;28;20079;-68
2021/03/29 01:01:04;;;;;;;23.27;12.63;;;;;;;4.35;75.00;96487.59;5068976;28;20043;-68
2021/03/29 01:03:32;;;;;;;22.52;12.55;;;;;;;4.38;74.65;96489.91;5087755;28;20449;-68
2021/03/29 01:05:59;;;;;;;22.58;12.23;;;;;;;4.35;74.81;96490.19;5087505;28;20494;-68
2021/03/29 01:08:26;;;;;;;23.00;12.95;;;;;;;4.32;74.55;96480.19;5086749;28;20418;-68
2021/03/29 01:10:55;;;;;;;30.30;14.70;;;;;;;4.27;74.33;96471.25;5086825;28;20043;-68
2021/03/29 01:13:22;;;;;;;23.88;12.52;;;;;;;4.32;73.88;96469.88;5066254;28;20123;-68
2021/03/29 01:15:51;;;;;;;21.05;12.77;;;;;;;4.11;76.88;96490.03;5087706;28;20039;-68
2021/03/29 01:18:21;;;;;;;23.95;13.95;;;;;;;3.84;78.80;96486.59;5085497;28;20059;-68
2021/03/29 01:21:12;;;;;;;21.60;12.52;;;;;;;3.48;80.31;96486.56;5085935;28;20044;-68
2021/03/29 01:23:39;;;;;;;19.77;11.63;;;;;;;3.34;80.52;96479.34;5086117;28;20059;-68
2021/03/29 01:26:38;;;;;;;19.15;12.60;;;;;;;3.61;79.79;96492.16;5087987;28;20425;-68
2021/03/29 01:29:05;;;;;;;26.67;14.60;;;;;;;3.79;79.09;96483.63;5100421;27;20070;-68
2021/03/29 01:31:32;;;;;;;21.33;13.90;;;;;;;3.91;78.26;96486.81;5086145;28;20044;-68
2021/03/29 01:33:59;;;;;;;26.95;17.15;;;;;;;3.98;78.05;96485.22;5086982;28;20074;-68
2021/03/29 01:36:29;;;;;;;26.23;14.63;;;;;;;4.08;77.44;96482.59;5087464;28;20054;-68
2021/03/29 01:38:58;;;;;;;25.30;15.07;;;;;;;4.12;76.76;96473.59;5067450;28;20052;-68
2021/03/29 01:41:26;;;;;;;24.98;15.05;;;;;;;3.66;79.54;96472.91;5085534;28;20052;-69
2021/03/29 01:43:53;;;;;;;21.60;13.27;;;;;;;3.81;78.48;96476.56;5085684;28;20076;-68
2021/03/29 01:46:19;;;;;;;20.67;12.65;;;;;;;3.28;80.30;96477.31;5068194;28;20051;-68
2021/03/29 01:48:47;;;;;;;24.02;13.02;;;;;;;3.02;81.70;96475.44;5085303;28;20059;-67
2021/03/29 01:51:16;;;;;;;19.25;12.52;;;;;;;3.16;81.35;96462.09;5068471;28;20044;-68
2021/03/29 01:53:44;;;;;;;23.95;13.07;;;;;;;3.36;80.74;96475.66;5085241;28;20056;-68
2021/03/29 01:56:11;;;;;;;19.17;11.80;;;;;;;3.39;80.31;96472.78;5085737;28;20467;-68
2021/03/29 01:58:38;;;;;;;21.63;12.43;;;;;;;3.45;79.94;96473.97;5086118;28;20512;-68
2021/03/29 02:01:09;;;;;;;21.60;12.85;;;;;;;3.43;79.51;96457.84;5086871;28;20036;-67
2021/03/29 02:03:36;;;;;;;23.95;13.05;;;;;;;3.09;81.39;96475.69;5085889;28;20052;-68
2021/03/29 02:06:04;;;;;;;27.58;12.63;;;;;;;3.02;81.77;96475.44;5088422;28;20043;-68
2021/03/29 02:08:33;;;;;;;19.83;13.45;;;;;;;3.10;81.46;96478.13;5086624;28;20059;-68
2021/03/29 02:11:01;;;;;;;19.17;11.80;;;;;;;3.15;81.35;96475.94;5086994;28;20078;-68
2021/03/29 02:13:31;;;;;;;19.35;11.93;;;;;;;3.10;81.32;96461.84;5085602;28;20056;-68
2021/03/29 02:16:01;;;;;;;20.35;12.52;;;;;;;3.33;80.54;96475.13;5084728;28;20501;-68
2021/03/29 02:18:31;;;;;;;19.23;11.65;;;;;;;3.38;79.71;96470.34;5085962;28;20048;-68
2021/03/29 02:21:01;;;;;;;19.67;11.52;;;;;;;3.50;79.13;96483.84;5088127;28;20638;-68
2021/03/29 02:23:30;;;;;;;23.23;13.07;;;;;;;3.43;79.03;96468.16;5086336;28;20048;-68
2021/03/29 02:25:59;;;;;;;23.23;12.70;;;;;;;3.51;79.09;96473.41;5085658;28;20044;-68
2021/03/29 02:28:25;;;;;;;24.83;12.48;;;;;;;3.51;79.30;96475.97;5083458;28;20063;-68
2021/03/29 02:30:52;;;;;;;31.35;15.07;;;;;;;3.05;82.06;96470.00;5084341;28;20046;-67
2021/03/29 02:33:19;;;;;;;23.33;13.77;;;;;;;3.11;82.27;96473.78;5084059;28;20059;-68
2021/03/29 02:35:48;;;;;;;26.92;15.10;;;;;;;3.11;82.74;96474.56;5086684;28;20429;-68
2021/03/29 02:38:18;;;;;;;23.83;13.82;;;;;;;3.27;82.16;96483.44;5086714;28;21682;-68
2021/03/29 02:40:49;;;;;;;21.45;13.13;;;;;;;3.40;81.54;96473.59;5086562;28;20036;-68
2021/03/29 02:43:16;;;;;;;20.00;13.55;;;;;;;3.40;81.60;96478.75;5086195;28;20051;-68
2021/03/29 02:45:49;;;;;;;25.08;13.57;;;;;;;3.23;82.60;96467.47;5085154;28;20148;-68
2021/03/29 02:48:18;;;;;;;29.02;16.00;;;;;;;3.28;82.79;96479.91;5086279;28;20112;-68
2021/03/29 02:50:48;;;;;;;25.10;14.50;;;;;;;3.29;82.61;96460.94;5086407;28;20584;-68
2021/03/29 02:53:21;;;;;;;25.67;16.27;;;;;;;3.55;81.48;96477.31;5086371;28;20048;-68
2021/03/29 02:55:49;;;;;;;;;;;;;;;3.55;81.64;96487.59;5086914;28;20408;-68
2021/03/29 02:58:21;;;;;;;38.85;16.13;;;;;;;3.62;81.58;96480.91;5085937;28;19924;-68
2021/03/29 03:00:48;;;;;;;25.42;14.45;;;;;;;3.72;81.39;96485.19;5066371;28;20421;-68
2021/03/29 03:03:15;;;;;;;23.23;14.70;;;;;;;3.44;82.42;96475.75;5085951;28;20490;-68
2021/03/29 03:05:43;;;;;;;25.02;16.60;;;;;;;3.33;82.88;96477.69;5067763;28;20051;-68
2021/03/29 03:08:10;;;;;;;28.20;16.55;;;;;;;3.40;82.91;96473.59;5085860;28;20040;-68
2021/03/29 03:10:37;;;;;;;25.80;14.40;;;;;;;3.31;83.09;96474.47;5085840;28;20040;-68
2021/03/29 03:13:06;;;;;;;28.92;14.15;;;;;;;3.46;82.75;96483.34;5086329;28;20040;-68
2021/03/29 03:15:34;;;;;;;41.13;14.93;;;;;;;3.47;82.80;96484.13;5067992;28;20044;-68
2021/03/29 03:18:03;;;;;;;24.90;14.43;;;;;;;3.60;82.43;96480.25;5086059;28;20036;-69
2021/03/29 03:20:32;;;;;;;21.23;13.75;;;;;;;3.76;81.75;96483.91;5101587;28;20048;-68
2021/03/29 03:23:01;;;;;;;31.77;14.73;;;;;;;3.67;81.22;96459.84;5085716;28;20040;-68
2021/03/29 03:25:30;;;;;;;19.70;12.95;;;;;;;3.95;80.76;96488.13;5067996;28;20055;-68
2021/03/29 03:28:00;;;;;;;29.05;15.32;;;;;;;3.77;81.76;96490.72;5084016;28;20048;-68
2021/03/29 03:30:29;;;;;;;22.77;14.68;;;;;;;3.89;81.14;96489.53;5084551;28;20118;-68
2021/03/29 03:32:56;;;;;;;26.38;15.05;;;;;;;3.98;80.79;96498.94;5085747;28;20524;-68
2021/03/29 03:35:24;;;;;;;21.75;15.13;;;;;;;4.07;80.18;96496.41;5084831;28;20036;-69
2021/03/29 03:37:58;;;;;;;29.25;14.45;;;;;;;4.07;79.90;96501.56;5084659;28;20055;-68
2021/03/29 03:40:25;;;;;;;23.40;14.50;;;;;;;4.04;79.07;96476.13;5085688;28;20557;-68
2021/03/29 03:42:55;;;;;;;40.17;24.45;;;;;;;4.10;79.21;96490.97;5084110;28;20036;-68
2021/03/29 03:45:25;;;;;;;29.48;17.08;;;;;;;3.88;80.61;96490.47;5087013;28;20048;-68
2021/03/29 03:47:53;;;;;;;28.80;17.50;;;;;;;3.87;81.18;96491.44;5085792;28;20437;-68
2021/03/29 03:50:19;;;;;;;26.02;15.63;;;;;;;4.00;80.51;96494.44;5084481;28;20413;-68
2021/03/29 03:52:48;;;;;;;24.92;14.95;;;;;;;3.80;81.06;96474.97;5067454;28;20497;-68
2021/03/29 03:55:16;;;;;;;25.63;16.45;;;;;;;3.85;81.46;96492.53;5085450;28;20047;-69
2021/03/29 03:57:43;;;;;;;20.83;12.95;;;;;;;3.72;81.33;96487.75;5085541;28;20044;-69
2021/03/29 04:00:15;;;;;;;13.90;8.98;;;;;;;3.73;81.27;96489.38;5085426;28;20048;-68
2021/03/29 04:02:43;;;;;;;18.13;9.90;;;;;;;3.62;82.18;96491.22;5084806;28;20032;-68
2021/03/29 04:05:12;;;;;;;11.98;7.68;;;;;;;3.46;83.02;96488.47;5067094;28;20043;-68
2021/03/29 04:07:59;;;;;;;13.30;9.00;;;;;;;3.34;84.45;96485.28;5085963;28;20051;-68
2021/03/29 04:15:59;;;;;;;10.43;7.20;;;;;;;3.40;84.91;96479.56;5089602;28;20409;-68
2021/03/29 04:18:26;;;;;;;13.63;10.35;;;;;;;3.14;86.45;96484.59;5088499;28;20482;-68
2021/03/29 04:20:55;;;;;;;17.13;9.93;;;;;;;3.14;87.43;96478.66;5088823;28;20071;-68
2021/03/29 04:23:25;;;;;;;13.65;10.43;;;;;;;2.95;89.27;96474.38;5070390;28;20059;-68
2021/03/29 04:25:53;;;;;;;13.52;9.35;;;;;;;3.00;89.21;96467.84;5088852;28;20040;-68
2021/03/29 04:28:20;;;;;;;18.33;11.80;;;;;;;2.95;89.51;96474.38;5087668;28;20036;-68
2021/03/29 04:30:47;;;;;;;23.25;11.95;;;;;;;2.96;89.74;96470.88;5088334;28;20040;-68
2021/03/29 04:33:14;;;;;;;28.33;16.38;;;;;;;2.99;89.81;96475.72;5087745;28;20118;-68
2021/03/29 04:35:41;;;;;;;18.83;11.38;;;;;;;3.23;89.15;96481.16;5069830;28;20044;-68
2021/03/29 04:38:07;;;;;;;15.27;10.65;;;;;;;3.38;88.62;96480.66;5088128;28;20139;-68
2021/03/29 04:40:33;;;;;;;18.17;10.18;;;;;;;3.39;88.75;96477.16;5088393;28;20048;-68
2021/03/29 04:43:00;;;;;;;19.23;11.85;;;;;;;3.51;88.02;96480.31;5088331;28;20044;-68
2021/03/29 04:45:26;;;;;;;19.92;12.57;;;;;;;3.35;88.22;96481.78;5087882;28;20048;-68
2021/03/29 04:47:53;;;;;;;23.63;12.15;;;;;;;3.47;87.94;96469.47;5088589;28;20036;-68
2021/03/29 04:50:21;;;;;;;29.38;17.95;;;;;;;3.75;87.18;96488.28;5087707;28;20031;-68
2021/03/29 04:52:48;;;;;;;30.60;15.95;;;;;;;3.86;86.62;96500.13;5086771;28;20072;-69
2021/03/29 04:55:16;;;;;;;21.65;13.35;;;;;;;3.99;85.69;96497.97;5088297;28;20044;-68
2021/03/29 04:57:43;;;;;;;27.83;13.93;;;;;;;4.11;85.35;96505.50;5087791;28;20050;-68
2021/03/29 05:00:12;;;;;;;28.40;16.45;;;;;;;4.17;84.46;96507.47;5103185;28;21233;-68
2021/03/29 05:02:38;;;;;;;34.88;19.58;;;;;;;4.29;83.69;96511.44;5088480;28;20115;-68
2021/03/29 05:05:06;;;;;;;104.32;58.28;;;;;;;4.41;83.00;96509.41;5087457;28;20126;-69
2021/03/29 05:07:33;;;;;;;133.05;71.70;;;;;;;4.49;81.87;96506.09;5087942;28;20115;-68
2021/03/29 05:10:00;;;;;;;61.35;35.05;;;;;;;4.56;81.60;96501.94;5087921;28;20453;-68
2021/03/29 05:12:27;;;;;;;43.65;24.65;;;;;;;4.49;80.95;96495.78;5087989;28;20047;-68
2021/03/29 05:14:53;;;;;;;91.60;45.22;;;;;;;4.57;80.48;96508.72;5087933;28;20072;-68
2021/03/29 05:17:20;;;;;;;112.10;56.08;;;;;;;4.57;80.10;96498.38;5069482;28;20048;-68
2021/03/29 05:19:48;;;;;;;118.70;63.22;;;;;;;4.68;79.82;96511.06;5086208;28;20097;-68
2021/03/29 05:22:14;;;;;;;65.10;33.17;;;;;;;4.71;79.26;96510.72;5087693;28;20040;-69
2021/03/29 05:24:41;;;;;;;50.15;28.15;;;;;;;4.71;79.13;96518.47;5068932;28;20414;-68
2021/03/29 05:27:08;;;;;;;44.75;25.08;;;;;;;4.69;78.75;96515.25;5086942;28;20036;-68
2021/03/29 05:29:42;;;;;;;70.18;34.15;;;;;;;4.69;78.78;96519.59;5086849;28;20052;-68
2021/03/29 05:32:17;;;;;;;145.07;63.42;;;;;;;4.78;78.98;96516.91;5087866;28;20032;-69
2021/03/29 05:34:45;;;;;;;159.75;75.72;;;;;;;4.77;78.86;96504.16;5086215;28;20052;-68
2021/03/29 05:37:13;;;;;;;229.82;101.53;;;;;;;4.85;78.52;96521.47;5087225;28;20028;-68
2021/03/29 05:39:39;;;;;;;109.75;49.97;;;;;;;4.85;77.59;96500.81;5086853;28;20051;-68
2021/03/29 05:42:08;;;;;;;57.15;28.95;;;;;;;4.98;77.07;96516.69;5087235;28;20120;-68
2021/03/29 05:44:35;;;;;;;23.85;14.40;;;;;;;5.06;76.18;96516.75;5087026;28;20373;-68
2021/03/29 05:47:03;;;;;;;70.50;29.17;;;;;;;5.11;73.91;96516.25;5086932;28;20036;-69
2021/03/29 05:49:36;;;;;;;18.58;11.75;;;;;;;5.21;72.96;96522.13;5080552;28;20052;-69
2021/03/29 05:52:03;;;;;;;21.73;11.93;;;;;;;5.30;72.58;96504.88;5084759;28;20426;-68
2021/03/29 05:54:29;;;;;;;24.55;13.43;;;;;;;5.34;72.23;96495.84;5083646;28;20078;-68
2021/03/29 05:56:56;;;;;;;39.60;18.13;;;;;;;5.57;71.28;96510.78;5085419;28;20044;-69
2021/03/29 05:59:26;;;;;;;23.55;12.18;;;;;;;5.65;69.03;96503.81;5083094;28;20067;-69
2021/03/29 06:01:55;;;;;;;18.40;9.90;;;;;;;5.80;68.63;96516.97;5085685;28;20050;-69
2021/03/29 06:04:48;;;;;;;22.30;10.57;;;;;;;5.97;67.34;96507.47;5085211;28;20070;-68
2021/03/29 06:07:20;;;;;;;14.32;8.23;;;;;;;6.06;64.45;96516.03;5084908;28;20477;-68
2021/03/29 06:09:50;;;;;;;23.23;9.80;;;;;;;6.10;63.98;96512.16;5065954;28;20035;-68
2021/03/29 06:12:19;;;;;;;19.70;10.68;;;;;;;6.22;63.17;96510.88;5088137;28;20127;-68
2021/03/29 06:14:57;;;;;;;19.30;8.18;;;;;;;6.27;62.07;96492.28;5086506;28;20032;-68
2021/03/29 06:17:23;;;;;;;15.23;9.27;;;;;;;6.38;62.26;96504.06;5085740;28;20028;-69
2021/03/29 06:19:57;;;;;;;23.15;10.48;;;;;;;6.56;63.08;96502.09;5085662;28;20046;-68
2021/03/29 06:22:27;;;;;;;20.45;9.82;;;;;;;6.53;63.58;96492.06;5087669;28;20055;-68
2021/03/29 06:25:16;;;;;;;13.18;9.02;;;;;;;6.79;61.99;96511.75;5068023;28;20040;-68
2021/03/29 06:27:51;;;;;;;14.75;6.35;;;;;;;6.79;60.94;96514.34;5087660;28;20410;-68
2021/03/29 06:30:32;;;;;;;17.33;7.80;;;;;;;6.90;60.91;96508.84;5084745;28;20039;-70
2021/03/29 06:33:06;;;;;;;12.27;7.00;;;;;;;7.04;61.18;96515.91;5086641;28;20043;-69
2021/03/29 06:35:47;;;;;;;9.90;6.10;;;;;;;7.15;60.07;96511.31;5086206;28;20440;-69
2021/03/29 06:38:27;;;;;;;11.20;5.78;;;;;;;7.22;60.17;96507.09;5085398;28;20043;-69
2021/03/29 06:40:59;;;;;;;14.55;7.13;;;;;;;7.30;57.90;96520.03;5086528;28;20523;-68
2021/03/29 06:43:27;;;;;;;10.55;5.88;;;;;;;7.41;58.28;96511.88;5086328;28;20047;-68
2021/03/29 06:45:56;;;;;;;87.55;39.58;;;;;;;7.57;61.88;96520.56;5086158;28;20063;-68
2021/03/29 06:48:24;;;;;;;17.15;9.63;;;;;;;7.65;60.50;96515.31;5087589;28;20089;-68
2021/03/29 06:51:17;;;;;;;13.25;6.07;;;;;;;7.77;57.98;96521.72;5085665;28;22056;-68
2021/03/29 06:53:52;;;;;;;25.27;12.25;;;;;;;7.84;57.26;96520.06;5085560;28;20039;-68
2021/03/29 06:56:28;;;;;;;9.43;6.07;;;;;;;7.76;56.06;96519.28;5085394;28;20054;-68
2021/03/29 06:58:57;;;;;;;23.73;11.02;;;;;;;7.98;57.32;96522.91;5085815;28;20042;-69
2021/03/29 07:01:25;;;;;;;18.75;10.90;;;;;;;8.07;56.48;96519.28;5085352;28;20043;-69
2021/03/29 07:03:54;;;;;;;31.27;16.02;;;;;;;8.13;58.94;96526.34;5085888;28;20115;-68
2021/03/29 07:06:28;;;;;;;31.73;13.18;;;;;;;8.16;59.51;96514.84;5084720;28;20040;-68
2021/03/29 07:09:06;;;;;;;;;;;;;;;8.32;57.23;96524.25;5086608;28;20051;-68
2021/03/29 07:11:34;;;;;;;24.40;11.13;;;;;;;8.18;57.57;96518.84;5085999;28;19924;-67
2021/03/29 07:14:06;;;;;;;20.65;10.02;;;;;;;8.21;58.52;96518.50;5067526;28;20044;-67
2021/03/29 07:16:34;;;;;;;16.20;9.65;;;;;;;8.31;56.92;96530.44;5085968;28;20055;-67
2021/03/29 07:19:08;;;;;;;27.25;10.70;;;;;;;8.36;57.87;96530.72;5086106;28;20032;-68
2021/03/29 07:21:35;;;;;;;;;;;;;;;8.40;57.70;96532.00;5086356;28;20504;-69
2021/03/29 07:24:04;;;;;;;19.45;10.68;;;;;;;8.49;58.13;96530.97;5087838;28;19928;-68
2021/03/29 07:26:47;;;;;;;19.38;10.63;;;;;;;8.56;58.96;96526.69;5084666;28;20044;-68
2021/03/29 07:29:19;;;;;;;18.77;9.68;;;;;;;8.75;55.85;96535.78;5084354;28;20066;-68
2021/03/29 07:31:48;;;;;;;19.83;10.40;;;;;;;8.88;54.25;96529.97;5086384;28;20040;-68
2021/03/29 07:34:15;;;;;;;14.10;7.38;;;;;;;9.03;52.68;96529.16;5085332;28;20040;-68
2021/03/29 07:36:42;;;;;;;12.73;6.18;;;;;;;9.07;49.81;96528.59;5067805;28;20040;-68
2021/03/29 07:39:10;;;;;;;16.95;7.18;;;;;;;9.16;48.93;96526.72;5065998;28;20052;-68
2021/03/29 07:41:37;;;;;;;14.20;5.60;;;;;;;9.09;47.55;96515.44;5067254;28;20044;-68
2021/03/29 07:44:19;;;;;;;26.77;12.63;;;;;;;9.26;45.98;96522.06;5050800;28;20056;-68
2021/03/29 07:46:56;;;;;;;9.20;4.53;;;;;;;9.35;45.13;96520.97;5085202;28;20560;-69
2021/03/29 07:49:41;;;;;;;19.98;10.48;;;;;;;9.43;44.06;96521.88;5088143;28;20044;-68
2021/03/29 07:52:26;;;;;;;13.50;6.78;;;;;;;9.53;42.98;96507.59;5090636;28;20048;-68
2021/03/29 07:54:54;;;;;;;19.98;5.40;;;;;;;9.60;44.56;96509.44;5088485;28;20036;-68
2021/03/29 07:57:50;;;;;;;16.67;6.65;;;;;;;9.51;44.13;96513.97;5088979;28;20040;-68
2021/03/29 08:00:25;;;;;;;7.15;3.88;;;;;;;9.54;43.88;96514.41;5059574;28;20048;-69
2021/03/29 08:02:56;;;;;;;12.82;3.70;;;;;;;9.46;43.29;96505.91;5088031;28;20036;-68
2021/03/29 08:05:40;;;;;;;13.45;8.32;;;;;;;9.68;43.02;96509.34;5087764;28;20505;-68
2021/03/29 08:08:25;;;;;;;10.85;6.32;;;;;;;9.83;43.02;96507.50;5090354;28;20047;-68
2021/03/29 08:11:04;;;;;;;11.18;4.53;;;;;;;9.90;42.66;96510.16;5071144;28;20040;-68
2021/03/29 08:13:50;;;;;;;12.38;4.43;;;;;;;9.97;42.53;96513.63;5088747;28;20032;-69
2021/03/29 08:16:20;;;;;;;30.35;9.98;;;;;;;10.08;42.85;96505.34;5088058;28;20032;-68
2021/03/29 08:19:15;;;;;;;38.63;14.20;;;;;;;10.39;42.27;96506.03;5088531;28;20038;-68
2021/03/29 08:21:53;;;;;;;25.88;8.90;;;;;;;10.45;42.37;96513.09;5087345;28;20455;-69
2021/03/29 08:24:37;;;;;;;42.70;16.42;;;;;;;10.54;42.56;96509.34;5087193;28;20559;-68
2021/03/29 08:27:17;;;;;;;84.40;28.75;;;;;;;10.67;41.43;96506.03;5088334;28;20044;-68
2021/03/29 08:29:48;;;;;;;19.10;8.02;;;;;;;10.71;41.06;96500.28;5087619;28;20501;-68
2021/03/29 08:32:16;;;;;;;23.38;9.32;;;;;;;10.78;40.50;96505.50;5087940;28;20036;-68
2021/03/29 08:34:50;;;;;;;16.15;7.03;;;;;;;10.82;40.17;96491.13;5088334;28;20051;-68
2021/03/29 08:37:22;;;;;;;;;;;;;;;10.88;40.08;96500.75;5088704;28;20028;-68
2021/03/29 08:39:51;;;;;;;21.10;9.13;;;;;;;11.01;41.10;96499.22;5087490;28;19919;-69
2021/03/29 08:42:20;;;;;;;19.55;7.28;;;;;;;10.84;40.02;96483.91;5088394;28;20044;-68
2021/03/29 08:44:48;;;;;;;11.63;5.25;;;;;;;11.14;40.44;96495.88;5089569;28;20412;-68
2021/03/29 08:47:17;;;;;;;9.85;4.03;;;;;;;11.28;39.45;96490.53;5069068;28;20086;-68
2021/03/29 08:49:45;;;;;;;11.30;4.85;;;;;;;11.47;39.88;96504.66;5088804;28;20051;-68
2021/03/29 08:52:13;;;;;;;18.30;8.20;;;;;;;11.51;39.02;96494.66;5088402;28;20047;-68
2021/03/29 08:54:54;;;;;;;13.00;6.38;;;;;;;11.77;38.56;96498.31;5088325;28;20052;-68
2021/03/29 08:57:23;;;;;;;25.85;9.38;;;;;;;11.81;38.25;96489.09;5086857;28;20166;-68
2021/03/29 08:59:54;;;;;;;14.23;7.53;;;;;;;11.77;38.15;96490.50;5069400;28;20482;-68
2021/03/29 09:02:21;;;;;;;53.60;15.60;;;;;;;11.83;38.75;96482.69;5088309;28;20044;-68
2021/03/29 09:04:52;;;;;;;11.27;5.10;;;;;;;11.56;38.85;96470.56;5087864;28;20048;-68
2021/03/29 09:07:20;;;;;;;11.80;6.95;;;;;;;11.52;38.64;96474.56;5087911;28;20180;-68
2021/03/29 09:09:47;;;;;;;38.22;11.63;;;;;;;11.69;38.05;96473.22;5088277;28;20834;-69
2021/03/29 09:12:40;;;;;;;13.68;6.57;;;;;;;11.69;37.73;96475.03;5087809;28;20051;-68
2021/03/29 09:15:17;;;;;;;38.15;13.38;;;;;;;11.80;38.51;96480.47;5087484;28;20055;-68
2021/03/29 09:17:44;;;;;;;8.70;4.32;;;;;;;11.91;37.27;96466.06;5087477;28;20067;-68
2021/03/29 09:20:21;;;;;;;7.95;4.40;;;;;;;11.90;37.26;96472.25;5069850;28;20501;-69
2021/03/29 09:22:48;;;;;;;7.20;4.43;;;;;;;11.75;37.91;96474.22;5087687;28;20481;-69
2021/03/29 09:25:26;;;;;;;10.48;5.00;;;;;;;11.76;38.11;96486.28;5087831;28;20497;-69
2021/03/29 09:28:13;;;;;;;25.08;8.93;;;;;;;12.11;37.22;96479.13;5085482;28;20044;-69
2021/03/29 09:30:40;;;;;;;20.20;9.30;;;;;;;12.23;37.41;96477.53;5102464;27;20056;-69
2021/03/29 09:33:07;;;;;;;34.08;12.57;;;;;;;12.69;37.02;96464.63;5086372;28;20420;-69
2021/03/29 09:35:34;;;;;;;14.45;6.85;;;;;;;12.99;34.85;96475.44;5087473;28;20408;-69
2021/03/29 09:38:00;;;;;;;38.83;13.75;;;;;;;12.69;35.95;96470.66;5087818;28;20040;-69
2021/03/29 09:40:34;;;;;;;14.65;6.93;;;;;;;12.71;36.25;96463.44;5087324;28;20071;-68
2021/03/29 09:43:02;;;;;;;12.77;7.43;;;;;;;12.66;35.48;96439.72;5086512;28;20451;-68
2021/03/29 09:45:31;;;;;;;7.80;4.13;;;;;;;13.29;34.00;96456.59;5088317;28;20519;-69
2021/03/29 09:48:10;;;;;;;12.70;6.50;;;;;;;13.30;35.69;96447.75;5087361;28;20512;-68
2021/03/29 09:50:39;;;;;;;14.38;6.80;;;;;;;12.95;35.80;96458.56;5087766;28;20048;-69
2021/03/29 09:53:18;;;;;;;11.02;5.07;;;;;;;13.05;35.99;96458.91;5086343;28;20413;-69
2021/03/29 09:55:49;;;;;;;10.23;4.78;;;;;;;13.63;35.18;96454.66;5086636;28;20463;-69
2021/03/29 09:58:18;;;;;;;16.58;5.25;;;;;;;13.95;34.24;96451.06;5085882;28;20043;-69
2021/03/29 10:00:44;;;;;;;10.02;4.10;;;;;;;14.05;34.16;96436.69;5087593;28;20048;-68
2021/03/29 10:03:15;;;;;;;8.93;5.40;;;;;;;14.07;33.94;96440.69;5087134;28;20039;-69
2021/03/29 10:05:41;;;;;;;14.00;5.13;;;;;;;14.33;33.00;96444.91;5087452;28;20040;-69
2021/03/29 10:08:08;;;;;;;8.18;4.70;;;;;;;14.65;32.37;96436.97;5086958;28;20044;-69
2021/03/29 10:10:34;;;;;;;10.50;4.05;;;;;;;14.65;33.00;96436.97;5086280;28;20768;-69
2021/03/29 10:13:10;;;;;;;13.88;5.70;;;;;;;14.29;32.69;96438.47;5086859;28;20036;-69
2021/03/29 10:15:39;;;;;;;11.18;5.55;;;;;;;14.74;32.76;96426.22;5085291;28;20612;-69
2021/03/29 10:18:14;;;;;;;7.20;3.28;;;;;;;14.88;31.46;96430.31;5085831;28;20059;-69
2021/03/29 10:20:42;;;;;;;;;;;;;;;14.39;32.56;96431.97;5087798;28;22632;-68
2021/03/29 10:23:29;;;;;;;9.02;4.43;;;;;;;13.95;33.58;96430.09;5085292;28;19959;-68
2021/03/29 10:26:10;;;;;;;10.02;4.03;;;;;;;14.01;33.08;96427.63;5085523;28;20048;-68
2021/03/29 10:28:38;;;;;;;5.82;3.33;;;;;;;14.72;31.84;96421.19;5085127;28;20047;-68
2021/03/29 10:31:04;;;;;;;12.70;4.65;;;;;;;15.42;31.29;96419.97;5085546;28;20063;-69
2021/03/29 10:33:31;;;;;;;8.65;3.58;;;;;;;16.07;30.15;96416.63;5085722;28;20047;-69
2021/03/29 10:35:57;;;;;;;8.32;3.35;;;;;;;16.53;29.67;96415.06;5087994;28;20055;-70
2021/03/29 10:38:23;;;;;;;18.45;13.73;;;;;;;16.46;29.47;96409.13;5086909;28;20044;-72
2021/03/29 10:40:50;;;;;;;12.70;8.30;;;;;;;16.52;28.93;96402.13;5087100;28;20032;-71
2021/03/29 10:43:16;;;;;;;5.85;3.10;;;;;;;16.23;28.84;96400.19;5086792;28;20036;-70
2021/03/29 10:45:42;;;;;;;7.25;3.97;;;;;;;16.38;29.75;96397.09;5086498;28;20114;-70
2021/03/29 10:48:09;;;;;;;9.60;4.47;;;;;;;16.39;29.11;96408.44;5101885;28;20497;-70
2021/03/29 10:50:35;;;;;;;6.97;3.05;;;;;;;16.56;28.75;96404.06;5086465;28;20044;-70
2021/03/29 10:53:02;;;;;;;7.13;3.55;;;;;;;16.75;28.02;96380.28;5066743;28;20058;-70
2021/03/29 10:55:28;;;;;;;10.82;3.63;;;;;;;17.15;27.20;96400.56;5084658;28;20063;-70
2021/03/29 10:57:55;;;;;;;6.85;3.25;;;;;;;17.09;27.33;96386.50;5085091;28;20036;-69
2021/03/29 11:00:22;;;;;;;6.32;2.75;;;;;;;17.07;26.74;96387.75;5085549;28;20032;-69
2021/03/29 11:02:52;;;;;;;5.07;2.70;;;;;;;16.77;28.68;96367.69;5085752;28;20055;-71
2021/03/29 11:05:19;;;;;;;5.93;2.78;;;;;;;17.56;27.03;96370.50;5085727;28;20044;-69
2021/03/29 11:07:45;;;;;;;7.78;4.32;;;;;;;17.47;27.42;96358.75;5086162;28;20036;-69
2021/03/29 11:10:13;;;;;;;7.68;3.42;;;;;;;17.95;27.23;96361.94;5085950;28;20046;-69
2021/03/29 11:12:39;;;;;;;7.70;3.67;;;;;;;18.10;26.24;96349.00;5085848;28;20044;-70
2021/03/29 11:15:06;;;;;;;6.03;2.88;;;;;;;18.80;25.54;96344.13;5087138;28;20101;-71
2021/03/29 11:17:35;;;;;;;10.50;3.58;;;;;;;19.15;25.01;96342.16;5086019;28;20040;-70
2021/03/29 11:20:04;;;;;;;10.23;3.97;;;;;;;19.05;24.23;96338.34;5067775;28;20122;-70
2021/03/29 11:22:30;;;;;;;7.90;4.22;;;;;;;17.89;25.35;96337.31;5085623;28;20424;-71
2021/03/29 11:24:56;;;;;;;12.85;3.75;;;;;;;17.53;25.20;96309.59;5085643;28;20040;-71
2021/03/29 11:27:23;;;;;;;9.77;5.20;;;;;;;18.02;25.62;96336.19;5085227;28;20131;-71
2021/03/29 11:29:50;;;;;;;5.88;2.63;;;;;;;18.40;25.15;96321.47;5084620;28;20493;-71
2021/03/29 11:32:17;;;;;;;12.45;3.97;;;;;;;18.59;25.10;96313.25;5084421;28;20040;-71
2021/03/29 11:34:44;;;;;;;6.45;3.40;;;;;;;18.27;25.00;96321.78;5086741;28;20104;-71
2021/03/29 11:37:10;;;;;;;5.13;2.38;;;;;;;18.47;25.23;96300.16;5085333;28;20040;-71
2021/03/29 11:39:37;;;;;;;5.75;3.13;;;;;;;19.13;24.09;96297.50;5085591;28;20043;-72
2021/03/29 11:42:04;;;;;;;4.47;2.63;;;;;;;19.24;23.12;96283.34;5085463;28;20050;-71
2021/03/29 11:44:30;;;;;;;5.63;2.72;;;;;;;19.26;24.18;96297.09;5084956;28;20051;-72
2021/03/29 11:46:57;;;;;;;5.15;2.70;;;;;;;18.76;23.69;96298.13;5085215;28;20448;-71
2021/03/29 11:49:23;;;;;;;3.78;2.05;;;;;;;18.83;23.63;96293.47;5085395;28;20956;-71